Time;durP1;ratioP1;P1;durP2;ratioP2;P2;SDS_P1;SDS_P2;PMS_P1;PMS_P2;Temp;Humidity;BMP_temperature;BMP_pressure;BME280_temperature;BME280_humidity;BME280_pressure;Samples;Min_cycle;Max_cycle;Signal;HPM_P1;HPM_P2
2022/01/02 00:00:09;;;;;;;;;;;20.40;48.30;;;;;;5107858;28;19924;-58
2022/01/02 00:02:36;;;;;;;;;;;20.50;48.30;;;;;;5089822;28;20016;-53
2022/01/02 00:05:03;;;;;;;;;;;20.40;48.20;;;;;;5086777;28;19954;-52
2022/01/02 00:07:30;;;;;;;;;;;20.40;48.30;;;;;;5094674;27;19928;-59
2022/01/02 00:09:57;;;;;;;;;;;20.40;48.30;;;;;;5102504;28;19959;-56
2022/01/02 00:12:26;;;;;;;;;;;20.50;48.30;;;;;;5088577;28;19924;-60
2022/01/02 00:14:54;;;;;;;;;;;20.50;48.30;;;;;;5089808;28;20321;-60
2022/01/02 00:17:23;;;;;;;;;;;20.40;48.20;;;;;;5101852;28;19977;-59
2022/01/02 00:19:53;;;;;;;;;;;20.50;48.20;;;;;;5108365;28;20258;-59
2022/01/02 00:22:22;;;;;;;;;;;20.40;48.20;;;;;;5094596;27;19934;-58
2022/01/02 00:24:49;;;;;;;;;;;20.40;48.20;;;;;;5103772;28;19928;-56
2022/01/02 00:27:16;;;;;;;;;;;20.40;48.20;;;;;;5090417;28;19930;-59
2022/01/02 00:29:44;;;;;;;;;;;20.40;48.20;;;;;;5095003;28;19994;-56
2022/01/02 00:32:11;;;;;;;;;;;20.40;48.20;;;;;;5090607;28;20023;-59
2022/01/02 00:34:38;;;;;;;;;;;20.40;48.20;;;;;;5092126;28;19932;-61
2022/01/02 00:37:05;;;;;;;;;;;20.40;48.20;;;;;;5079175;28;19924;-58
2022/01/02 00:39:31;;;;;;;;;;;20.40;48.20;;;;;;5085266;28;20307;-52
2022/01/02 00:42:00;;;;;;;;;;;20.40;48.20;;;;;;5088725;28;19928;-57
2022/01/02 00:44:29;;;;;;;;;;;20.40;48.10;;;;;;5102709;28;20026;-56
2022/01/02 00:46:59;;;;;;;;;;;20.40;48.20;;;;;;5089751;28;19924;-54
2022/01/02 00:49:26;;;;;;;;;;;20.40;48.20;;;;;;5092084;28;19928;-54
2022/01/02 00:51:54;;;;;;;;;;;20.40;48.10;;;;;;5082498;28;20027;-57
2022/01/02 00:54:22;;;;;;;;;;;20.40;48.10;;;;;;5094809;28;20340;-58
2022/01/02 00:56:50;;;;;;;;;;;20.40;48.10;;;;;;5089327;28;19927;-58
2022/01/02 00:59:21;;;;;;;;;;;20.40;48.10;;;;;;5085694;28;20373;-56
2022/01/02 01:01:47;;;;;;;;;;;20.40;48.10;;;;;;5106339;28;20300;-57
2022/01/02 01:04:15;;;;;;;;;;;20.40;48.10;;;;;;5087979;28;20275;-60
2022/01/02 01:06:42;;;;;;;;;;;20.40;48.10;;;;;;5088064;28;19927;-58
2022/01/02 01:09:09;;;;;;;;;;;20.40;48.10;;;;;;5087457;28;20331;-56
2022/01/02 01:11:36;;;;;;;;;;;20.40;48.10;;;;;;5087662;28;20416;-55
2022/01/02 01:14:02;;;;;;;;;;;20.40;48.10;;;;;;5089212;28;19924;-54
2022/01/02 01:16:29;;;;;;;;;;;20.40;48.10;;;;;;5103874;28;19982;-54
2022/01/02 01:18:57;;;;;;;;;;;20.40;48.10;;;;;;5087308;28;19963;-61
2022/01/02 01:21:27;;;;;;;;;;;20.40;48.10;;;;;;5104635;28;19924;-54
2022/01/02 01:23:54;;;;;;;;;;;20.40;48.10;;;;;;5088210;28;19927;-54
2022/01/02 01:26:21;;;;;;;;;;;20.40;48.10;;;;;;5088261;28;19973;-58
2022/01/02 01:28:47;;;;;;;;;;;20.40;48.00;;;;;;5089171;28;19931;-51
2022/01/02 01:31:14;;;;;;;;;;;20.40;48.10;;;;;;5090669;28;19945;-56
2022/01/02 01:33:41;;;;;;;;;;;20.40;48.00;;;;;;5107168;28;19923;-51
2022/01/02 01:36:08;;;;;;;;;;;20.40;48.00;;;;;;5092283;28;19930;-58
2022/01/02 01:38:36;;;;;;;;;;;20.40;48.10;;;;;;5072861;28;19934;-57
2022/01/02 01:41:06;;;;;;;;;;;20.40;48.00;;;;;;5095314;28;19997;-56
2022/01/02 01:43:40;;;;;;;;;;;20.40;48.00;;;;;;5090476;28;20023;-57
2022/01/02 01:46:07;;;;;;;;;;;20.40;48.60;;;;;;5111132;27;19970;-57
2022/01/02 01:48:34;;;;;;;;;;;20.40;48.00;;;;;;5081804;28;19924;-55
2022/01/02 01:51:00;;;;;;;;;;;20.30;48.00;;;;;;5102291;27;20020;-56
2022/01/02 01:53:27;;;;;;;;;;;20.30;47.90;;;;;;5092065;28;20403;-60
2022/01/02 01:55:56;;;;;;;;;;;20.40;48.00;;;;;;5116616;27;19924;-56
2022/01/02 01:58:23;;;;;;;;;;;20.30;47.90;;;;;;5071674;28;19924;-58
2022/01/02 02:00:49;;;;;;;;;;;20.40;48.00;;;;;;5099303;28;19984;-54
2022/01/02 02:03:16;;;;;;;;;;;20.40;48.60;;;;;;5091825;28;20094;-55
2022/01/02 02:05:43;;;;;;;;;;;20.30;47.90;;;;;;5109132;27;20019;-59
2022/01/02 02:08:10;;;;;;;;;;;20.40;48.00;;;;;;5088109;28;19928;-56
2022/01/02 02:10:39;;;;;;;;;;;20.40;48.00;;;;;;5091698;28;20448;-60
2022/01/02 02:13:07;;;;;;;;;;;20.30;47.90;;;;;;5109776;28;19980;-56
2022/01/02 02:15:34;;;;;;;;;;;20.40;48.00;;;;;;5109762;28;19963;-57
2022/01/02 02:18:01;;;;;;;;;;;20.30;47.90;;;;;;5087126;28;20392;-56
2022/01/02 02:20:29;;;;;;;;;;;20.40;48.10;;;;;;5099661;27;19976;-58
2022/01/02 02:22:57;;;;;;;;;;;20.30;48.00;;;;;;5087857;28;20685;-56
2022/01/02 02:25:24;;;;;;;;;;;20.30;48.60;;;;;;5110227;27;20332;-57
2022/01/02 02:27:51;;;;;;;;;;;20.40;48.10;;;;;;5071308;28;19924;-60
2022/01/02 02:30:18;;;;;;;;;;;20.30;48.00;;;;;;5073397;28;20284;-60
2022/01/02 02:32:45;;;;;;;;;;;20.30;48.00;;;;;;5071046;28;20282;-57
2022/01/02 02:35:11;;;;;;;;;;;20.30;48.00;;;;;;5074272;28;19973;-58
2022/01/02 02:37:43;;;;;;;;;;;20.30;48.10;;;;;;5091540;28;19927;-58
2022/01/02 02:40:10;;;;;;;;;;;20.30;48.10;;;;;;5092789;27;20010;-58
2022/01/02 02:42:44;;;;;;;;;;;20.30;48.10;;;;;;5111988;27;19923;-56
2022/01/02 02:50:36;;;;;;;;;;;20.30;48.10;;;;;;5108573;27;19935;-59
2022/01/02 02:53:04;;;;;;;;;;;20.30;48.10;;;;;;5129833;27;19927;-56
2022/01/02 02:55:41;;;;;;;;;;;20.30;48.10;;;;;;5109908;27;19978;-61
2022/01/02 02:58:28;;;;;;;;;;;20.30;48.10;;;;;;5090029;27;19924;-59
2022/01/02 03:00:54;;;;;;;;;;;20.30;48.10;;;;;;5075204;28;20376;-58
2022/01/02 03:03:21;;;;;;;;;;;20.30;48.10;;;;;;5099653;28;20397;-58
2022/01/02 03:05:48;;;;;;;;;;;20.30;48.10;;;;;;5073200;28;19924;-60
2022/01/02 03:08:16;;;;;;;;;;;20.30;48.10;;;;;;5091561;28;19959;-56
2022/01/02 03:10:43;;;;;;;;;;;20.30;48.20;;;;;;5092250;28;19928;-58
2022/01/02 03:13:10;;;;;;;;;;;20.30;48.10;;;;;;5109356;28;19975;-57
2022/01/02 03:15:37;;;;;;;;;;;20.30;48.10;;;;;;5091023;28;20013;-57
2022/01/02 03:18:04;;;;;;;;;;;20.30;48.10;;;;;;5110906;27;20354;-57
2022/01/02 03:20:30;;;;;;;;;;;20.30;48.10;;;;;;5091388;28;20454;-57
2022/01/02 03:22:57;;;;;;;;;;;20.30;48.20;;;;;;5101292;28;19928;-57
2022/01/02 03:25:26;;;;;;;;;;;20.30;48.20;;;;;;5070792;28;19935;-59
2022/01/02 03:27:52;;;;;;;;;;;20.30;48.20;;;;;;5071964;28;20393;-56
2022/01/02 03:30:19;;;;;;;;;;;20.30;48.20;;;;;;5107688;27;19971;-58
2022/01/02 03:32:46;;;;;;;;;;;20.30;48.20;;;;;;5088233;28;19924;-58
2022/01/02 03:35:13;;;;;;;;;;;20.30;48.20;;;;;;5088406;28;19920;-57
2022/01/02 03:37:39;;;;;;;;;;;20.30;48.20;;;;;;5100370;28;20440;-59
2022/01/02 03:40:07;;;;;;;;;;;20.30;48.20;;;;;;5107323;28;19963;-59
2022/01/02 03:42:36;;;;;;;;;;;20.30;48.20;;;;;;5099237;27;19968;-58
2022/01/02 03:45:02;;;;;;;;;;;20.30;48.20;;;;;;5083527;28;19924;-60
2022/01/02 03:47:29;;;;;;;;;;;20.30;48.20;;;;;;5095691;27;19934;-57
2022/01/02 03:49:57;;;;;;;;;;;20.30;48.20;;;;;;5110852;27;19923;-58
2022/01/02 03:52:24;;;;;;;;;;;20.30;48.20;;;;;;5120030;27;19923;-57
2022/01/02 03:54:50;;;;;;;;;;;20.30;48.20;;;;;;5107258;28;19982;-56
2022/01/02 03:57:17;;;;;;;;;;;20.30;48.20;;;;;;5090516;27;20022;-60
2022/01/02 03:59:46;;;;;;;;;;;20.30;48.20;;;;;;5070133;28;19931;-58
2022/01/02 04:02:13;;;;;;;;;;;20.30;48.20;;;;;;5091160;28;19924;-55
2022/01/02 04:04:39;;;;;;;;;;;20.30;48.20;;;;;;5108623;28;19981;-60
2022/01/02 04:07:06;;;;;;;;;;;20.30;48.20;;;;;;5089535;28;19973;-59
2022/01/02 04:09:33;;;;;;;;;;;20.30;48.30;;;;;;5108706;28;19923;-58
2022/01/02 04:12:00;;;;;;;;;;;20.30;48.30;;;;;;5089661;27;19953;-59
2022/01/02 04:14:27;;;;;;;;;;;20.30;48.30;;;;;;5088475;28;20441;-57
2022/01/02 04:16:55;;;;;;;;;;;20.30;48.30;;;;;;5090141;28;20027;-58
2022/01/02 04:19:22;;;;;;;;;;;20.30;48.30;;;;;;5127906;27;19928;-54
2022/01/02 04:21:49;;;;;;;;;;;20.30;48.30;;;;;;5097402;28;19964;-58
2022/01/02 04:24:16;;;;;;;;;;;20.30;48.30;;;;;;5124235;27;19939;-57
2022/01/02 04:26:42;;;;;;;;;;;20.30;48.30;;;;;;5100909;28;19920;-60
2022/01/02 04:29:10;;;;;;;;;;;20.30;48.30;;;;;;5103098;28;20349;-58
2022/01/02 04:31:37;;;;;;;;;;;20.30;48.30;;;;;;5090408;28;19927;-55
2022/01/02 04:34:06;;;;;;;;;;;20.20;48.20;;;;;;5097166;28;20285;-56
2022/01/02 04:36:33;;;;;;;;;;;20.30;48.30;;;;;;5074941;28;20417;-60
2022/01/02 04:39:00;;;;;;;;;;;20.30;48.30;;;;;;5108068;28;19930;-59
2022/01/02 04:41:26;;;;;;;;;;;20.30;48.30;;;;;;5106830;28;19927;-58
2022/01/02 04:43:53;;;;;;;;;;;20.20;48.20;;;;;;5090125;28;19969;-58
2022/01/02 04:46:20;;;;;;;;;;;20.30;48.30;;;;;;5108311;28;20372;-56
2022/01/02 04:48:47;;;;;;;;;;;20.30;48.30;;;;;;5099716;28;19924;-55
2022/01/02 04:51:15;;;;;;;;;;;20.30;48.30;;;;;;5089838;28;20587;-59
2022/01/02 04:53:47;;;;;;;;;;;20.30;48.30;;;;;;5093334;28;19927;-60
2022/01/02 04:56:14;;;;;;;;;;;20.20;48.20;;;;;;5071633;28;19924;-58
2022/01/02 04:58:41;;;;;;;;;;;20.30;48.30;;;;;;5092187;28;19923;-56
2022/01/02 05:01:11;;;;;;;;;;;20.30;48.30;;;;;;5109111;28;19923;-61
2022/01/02 05:03:38;;;;;;;;;;;20.30;48.30;;;;;;5109509;28;19923;-58
2022/01/02 05:06:05;;;;;;;;;;;20.20;48.20;;;;;;5108060;28;19939;-59
2022/01/02 05:08:33;;;;;;;;;;;20.20;48.20;;;;;;5073022;28;19935;-58
2022/01/02 05:11:00;;;;;;;;;;;20.30;48.30;;;;;;5107657;28;20377;-58
2022/01/02 05:13:27;;;;;;;;;;;20.20;48.20;;;;;;5081106;28;19924;-59
2022/01/02 05:15:54;;;;;;;;;;;20.20;48.20;;;;;;5128849;27;19930;-55
2022/01/02 05:18:20;;;;;;;;;;;20.20;48.20;;;;;;5083551;27;19930;-58
2022/01/02 05:20:47;;;;;;;;;;;20.30;48.90;;;;;;5114008;27;19928;-57
2022/01/02 05:23:14;;;;;;;;;;;20.20;48.20;;;;;;5113883;27;19924;-57
2022/01/02 05:25:43;;;;;;;;;;;20.20;48.20;;;;;;5093447;28;20010;-58
2022/01/02 05:28:11;;;;;;;;;;;20.20;48.20;;;;;;5111282;27;19924;-60
2022/01/02 05:30:37;;;;;;;;;;;20.20;48.20;;;;;;5091890;28;19930;-56
2022/01/02 05:33:04;;;;;;;;;;;20.20;48.30;;;;;;5096345;28;20057;-60
2022/01/02 05:35:31;;;;;;;;;;;20.20;48.20;;;;;;5088566;28;19924;-58
2022/01/02 05:37:58;;;;;;;;;;;20.20;48.20;;;;;;5091973;28;19928;-59
2022/01/02 05:40:25;;;;;;;;;;;20.20;48.20;;;;;;5106422;27;19923;-58
2022/01/02 05:42:53;;;;;;;;;;;20.20;48.30;;;;;;5118520;27;19930;-59
2022/01/02 05:45:20;;;;;;;;;;;20.20;48.30;;;;;;5098924;27;19927;-58
2022/01/02 05:47:47;;;;;;;;;;;20.20;48.30;;;;;;5094496;28;19938;-60
2022/01/02 05:50:14;;;;;;;;;;;20.20;48.30;;;;;;5083670;28;19963;-58
2022/01/02 05:52:41;;;;;;;;;;;20.20;48.30;;;;;;5089577;28;19928;-58
2022/01/02 05:55:08;;;;;;;;;;;20.20;48.30;;;;;;5093035;28;19989;-60
2022/01/02 05:57:34;;;;;;;;;;;20.20;48.30;;;;;;5081829;28;19930;-56
2022/01/02 06:00:03;;;;;;;;;;;20.20;48.30;;;;;;5099046;27;19935;-59
2022/01/02 06:02:30;;;;;;;;;;;20.20;48.30;;;;;;5081381;28;19930;-59
2022/01/02 06:04:57;;;;;;;;;;;20.20;48.90;;;;;;5096879;28;20004;-60
2022/01/02 06:07:24;;;;;;;;;;;20.20;48.30;;;;;;5090734;28;19974;-59
2022/01/02 06:09:51;;;;;;;;;;;20.20;48.30;;;;;;5091067;28;19931;-58
2022/01/02 06:12:18;;;;;;;;;;;20.20;48.30;;;;;;5093190;28;20036;-58
2022/01/02 06:14:44;;;;;;;;;;;20.20;48.40;;;;;;5093746;27;19928;-60
2022/01/02 06:17:13;;;;;;;;;;;20.20;48.30;;;;;;5107494;28;19989;-58
2022/01/02 06:19:39;;;;;;;;;;;20.20;48.40;;;;;;5092722;27;19928;-60
2022/01/02 06:22:06;;;;;;;;;;;20.20;48.40;;;;;;5125575;27;20500;-58
2022/01/02 06:24:33;;;;;;;;;;;20.20;48.40;;;;;;5090860;28;19978;-56
2022/01/02 06:27:00;;;;;;;;;;;20.20;48.40;;;;;;5121102;27;19928;-59
2022/01/02 06:29:26;;;;;;;;;;;20.20;48.40;;;;;;5086486;28;19947;-55
2022/01/02 06:31:53;;;;;;;;;;;20.20;48.40;;;;;;5106583;28;19931;-55
2022/01/02 06:34:21;;;;;;;;;;;20.20;48.40;;;;;;5099640;28;19963;-60
2022/01/02 06:36:48;;;;;;;;;;;20.20;48.40;;;;;;5104776;28;20382;-56
2022/01/02 06:39:14;;;;;;;;;;;20.20;48.40;;;;;;5090529;28;19923;-58
2022/01/02 06:41:41;;;;;;;;;;;20.20;48.40;;;;;;5120762;27;20479;-57
2022/01/02 06:44:08;;;;;;;;;;;20.20;48.40;;;;;;5107076;28;19966;-56
2022/01/02 06:46:35;;;;;;;;;;;20.20;48.40;;;;;;5103738;27;20036;-59
2022/01/02 06:49:02;;;;;;;;;;;20.20;48.40;;;;;;5112484;27;20272;-58
2022/01/02 06:51:30;;;;;;;;;;;20.20;48.40;;;;;;5087461;28;19930;-58
2022/01/02 06:53:57;;;;;;;;;;;20.20;49.10;;;;;;5082544;28;19999;-55
2022/01/02 06:56:27;;;;;;;;;;;20.20;48.40;;;;;;5080509;28;19950;-56
2022/01/02 06:58:54;;;;;;;;;;;20.20;48.50;;;;;;5091414;28;19932;-60
2022/01/02 07:01:20;;;;;;;;;;;20.20;48.40;;;;;;5084992;28;19928;-58
2022/01/02 07:03:47;;;;;;;;;;;20.20;48.40;;;;;;5086632;28;19927;-57
2022/01/02 07:06:14;;;;;;;;;;;20.20;48.50;;;;;;5088565;28;20439;-56
2022/01/02 07:08:42;;;;;;;;;;;20.20;48.40;;;;;;5089411;28;19938;-59
2022/01/02 07:11:11;;;;;;;;;;;20.20;48.50;;;;;;5077806;28;19955;-57
2022/01/02 07:13:38;;;;;;;;;;;20.20;48.50;;;;;;5085442;28;19963;-54
2022/01/02 07:16:05;;;;;;;;;;;20.20;48.50;;;;;;5081325;28;19967;-54
2022/01/02 07:18:31;;;;;;;;;;;20.20;48.50;;;;;;5109127;28;19947;-59
2022/01/02 07:20:58;;;;;;;;;;;20.20;48.50;;;;;;5090824;28;19932;-60
2022/01/02 07:23:25;;;;;;;;;;;20.20;48.50;;;;;;5084577;28;20457;-60
2022/01/02 07:25:53;;;;;;;;;;;20.20;48.50;;;;;;5108825;28;19928;-59
2022/01/02 07:28:21;;;;;;;;;;;20.20;48.50;;;;;;5093758;28;20400;-59
2022/01/02 07:30:48;;;;;;;;;;;20.20;48.50;;;;;;5092468;28;20253;-57
2022/01/02 07:33:14;;;;;;;;;;;20.20;48.50;;;;;;5106002;28;19958;-59
2022/01/02 07:35:41;;;;;;;;;;;20.20;48.50;;;;;;5108392;28;19924;-60
2022/01/02 07:38:08;;;;;;;;;;;20.20;48.50;;;;;;5107227;28;19969;-60
2022/01/02 07:40:35;;;;;;;;;;;20.20;48.50;;;;;;5086488;28;19932;-58
2022/01/02 07:43:03;;;;;;;;;;;20.20;48.50;;;;;;5081952;28;20276;-58
2022/01/02 07:45:29;;;;;;;;;;;20.20;48.50;;;;;;5088899;28;20026;-56
2022/01/02 07:47:56;;;;;;;;;;;20.20;48.50;;;;;;5080552;28;19931;-61
2022/01/02 07:50:23;;;;;;;;;;;20.20;48.50;;;;;;5086058;28;19924;-59
2022/01/02 07:52:52;;;;;;;;;;;20.20;48.60;;;;;;5085551;28;20300;-57
2022/01/02 07:55:18;;;;;;;;;;;20.20;48.60;;;;;;5106523;28;20327;-58
2022/01/02 07:57:45;;;;;;;;;;;20.20;48.60;;;;;;5087767;28;19973;-59
2022/01/02 08:00:14;;;;;;;;;;;20.20;48.60;;;;;;5087677;28;20007;-59
2022/01/02 08:02:44;;;;;;;;;;;20.20;48.60;;;;;;5102286;28;20018;-57
2022/01/02 08:05:11;;;;;;;;;;;20.20;48.60;;;;;;5100064;28;20466;-58
2022/01/02 08:07:38;;;;;;;;;;;20.20;48.60;;;;;;5087828;28;19927;-62
2022/01/02 08:10:05;;;;;;;;;;;20.20;48.60;;;;;;5088327;28;19985;-60
2022/01/02 08:12:32;;;;;;;;;;;20.20;48.70;;;;;;5098856;28;20376;-59
2022/01/02 08:14:59;;;;;;;;;;;20.20;48.60;;;;;;5106395;28;19924;-59
2022/01/02 08:17:27;;;;;;;;;;;20.20;48.60;;;;;;5107194;28;20018;-58
2022/01/02 08:19:54;;;;;;;;;;;20.20;48.60;;;;;;5085706;28;19933;-59
2022/01/02 08:22:20;;;;;;;;;;;20.20;48.60;;;;;;5089496;28;19924;-56
2022/01/02 08:24:47;;;;;;;;;;;20.20;48.60;;;;;;5104515;28;20365;-61
2022/01/02 08:27:14;;;;;;;;;;;20.20;48.70;;;;;;5090265;28;19927;-48
2022/01/02 08:29:41;;;;;;;;;;;20.20;48.90;;;;;;5116019;28;19934;-48
2022/01/02 08:32:08;;;;;;;;;;;20.20;49.00;;;;;;5117573;28;19959;-46
2022/01/02 08:34:36;;;;;;;;;;;20.20;48.90;;;;;;5091548;28;19928;-44
2022/01/02 08:37:03;;;;;;;;;;;20.20;48.80;;;;;;5078807;28;20678;-45
2022/01/02 08:39:29;;;;;;;;;;;20.20;48.70;;;;;;5090056;28;19927;-46
2022/01/02 08:41:56;;;;;;;;;;;20.20;48.80;;;;;;5116115;28;19934;-49
2022/01/02 08:44:23;;;;;;;;;;;20.20;48.70;;;;;;5110950;28;19924;-46
2022/01/02 08:46:50;;;;;;;;;;;20.30;48.80;;;;;;5098328;28;19970;-46
2022/01/02 08:49:17;;;;;;;;;;;20.30;48.80;;;;;;5091172;28;19924;-46
2022/01/02 08:51:46;;;;;;;;;;;20.30;48.70;;;;;;5099170;28;19928;-50
2022/01/02 08:54:12;;;;;;;;;;;20.30;48.70;;;;;;5101978;28;20399;-49
2022/01/02 08:56:39;;;;;;;;;;;20.30;48.60;;;;;;5098181;28;19938;-43
2022/01/02 08:59:06;;;;;;;;;;;20.30;48.60;;;;;;5086346;28;19977;-43
2022/01/02 09:01:33;;;;;;;;;;;20.30;48.60;;;;;;5100808;28;19987;-46
2022/01/02 09:04:00;;;;;;;;;;;20.30;48.60;;;;;;5089688;28;19927;-48
2022/01/02 09:06:27;;;;;;;;;;;20.40;48.70;;;;;;5101663;28;19973;-48
2022/01/02 09:08:55;;;;;;;;;;;20.40;48.70;;;;;;5095800;28;19978;-47
2022/01/02 09:11:22;;;;;;;;;;;20.30;48.60;;;;;;5098778;28;19970;-45
2022/01/02 09:13:48;;;;;;;;;;;20.40;48.70;;;;;;5095092;28;20010;-48
2022/01/02 09:16:16;;;;;;;;;;;20.30;48.60;;;;;;5085992;28;20523;-48
2022/01/02 09:18:42;;;;;;;;;;;20.30;48.60;;;;;;5085016;28;19927;-48
2022/01/02 09:21:09;;;;;;;;;;;20.40;48.70;;;;;;5096820;28;19994;-47
2022/01/02 09:23:36;;;;;;;;;;;20.30;48.50;;;;;;5082890;28;20396;-47
2022/01/02 09:26:04;;;;;;;;;;;20.30;48.50;;;;;;5119085;28;19931;-49
2022/01/02 09:28:30;;;;;;;;;;;20.40;48.70;;;;;;5097128;28;19978;-49
2022/01/02 09:30:57;;;;;;;;;;;20.40;48.60;;;;;;5094711;27;19923;-48
2022/01/02 09:33:24;;;;;;;;;;;20.40;48.70;;;;;;5099392;28;20046;-50
2022/01/02 09:35:51;;;;;;;;;;;20.40;48.70;;;;;;5098823;28;20323;-46
2022/01/02 09:38:18;;;;;;;;;;;20.40;48.70;;;;;;5093547;28;19924;-46
2022/01/02 09:40:45;;;;;;;;;;;20.40;48.70;;;;;;5088453;28;20120;-47
2022/01/02 09:43:13;;;;;;;;;;;20.40;48.70;;;;;;5088866;28;19962;-50
2022/01/02 09:45:41;;;;;;;;;;;20.40;48.60;;;;;;5104360;28;19984;-52
2022/01/02 09:48:08;;;;;;;;;;;20.40;48.70;;;;;;5097112;27;19926;-44
2022/01/02 09:50:35;;;;;;;;;;;20.40;48.70;;;;;;5092223;28;19930;-43
2022/01/02 09:53:02;;;;;;;;;;;20.40;49.30;;;;;;5097465;28;20448;-50
2022/01/02 09:55:29;;;;;;;;;;;20.40;48.70;;;;;;5095930;28;19924;-48
2022/01/02 09:57:59;;;;;;;;;;;20.40;48.70;;;;;;5099208;28;19924;-45
2022/01/02 10:00:27;;;;;;;;;;;20.40;48.70;;;;;;5099590;28;19923;-44
2022/01/02 10:02:54;;;;;;;;;;;20.40;48.70;;;;;;5085321;28;20300;-46
2022/01/02 10:05:24;;;;;;;;;;;20.40;48.70;;;;;;5081582;28;19954;-47
2022/01/02 10:07:54;;;;;;;;;;;20.40;48.70;;;;;;5097053;28;19928;-48
2022/01/02 10:10:21;;;;;;;;;;;20.40;48.70;;;;;;5090910;28;19984;-44
2022/01/02 10:12:48;;;;;;;;;;;20.50;48.80;;;;;;5094015;28;19974;-45
2022/01/02 10:15:16;;;;;;;;;;;20.50;48.80;;;;;;5114130;28;19924;-46
2022/01/02 10:17:57;;;;;;;;;;;20.50;48.80;;;;;;5107872;28;19924;-47
2022/01/02 10:20:25;;;;;;;;;;;20.50;48.80;;;;;;5092530;28;19934;-46
2022/01/02 10:23:08;;;;;;;;;;;20.50;48.90;;;;;;5099013;28;20014;-47
2022/01/02 10:25:39;;;;;;;;;;;20.50;48.90;;;;;;5097870;28;19924;-43
2022/01/02 10:28:19;;;;;;;;;;;20.50;48.90;;;;;;5098528;28;19924;-45
2022/01/02 10:30:46;;;;;;;;;;;20.50;48.90;;;;;;5095262;28;19981;-46
2022/01/02 10:33:14;;;;;;;;;;;20.50;49.00;;;;;;5094337;28;19924;-45
2022/01/02 10:35:41;;;;;;;;;;;20.50;49.00;;;;;;5091899;28;19927;-57
2022/01/02 10:38:11;;;;;;;;;;;20.50;49.00;;;;;;5077601;28;20018;-59
2022/01/02 10:40:39;;;;;;;;;;;20.50;49.00;;;;;;5086484;28;19932;-58
2022/01/02 10:43:06;;;;;;;;;;;20.50;49.00;;;;;;5076775;28;19927;-59
2022/01/02 10:45:34;;;;;;;;;;;20.50;49.00;;;;;;5082662;28;20042;-57
2022/01/02 10:48:01;;;;;;;;;;;20.50;49.00;;;;;;5105550;28;19932;-60
2022/01/02 10:50:29;;;;;;;;;;;20.50;49.10;;;;;;5086848;28;19939;-60
2022/01/02 10:52:56;;;;;;;;;;;20.50;49.10;;;;;;5086228;28;19936;-57
2022/01/02 10:55:23;;;;;;;;;;;20.50;49.10;;;;;;5086501;28;19958;-57
2022/01/02 10:57:50;;;;;;;;;;;20.50;49.00;;;;;;5087064;28;19976;-59
2022/01/02 11:00:17;;;;;;;;;;;20.60;49.20;;;;;;5085711;28;20443;-58
2022/01/02 11:02:44;;;;;;;;;;;20.50;49.10;;;;;;5104259;28;19928;-59
2022/01/02 11:05:11;;;;;;;;;;;20.50;49.20;;;;;;5086811;28;20359;-55
2022/01/02 11:07:40;;;;;;;;;;;20.60;49.30;;;;;;5085359;28;20434;-56
2022/01/02 11:10:07;;;;;;;;;;;20.60;50.50;;;;;;5084214;28;19927;-54
2022/01/02 11:12:34;;;;;;;;;;;20.60;51.10;;;;;;5085348;28;19919;-62
2022/01/02 11:15:01;;;;;;;;;;;21.90;54.40;;;;;;5087063;28;19932;-64
2022/01/02 11:17:27;;;;;;;;;;;22.20;51.60;;;;;;5089349;27;19975;-60
2022/01/02 11:19:54;;;;;;;;;;;23.00;49.60;;;;;;5090050;28;20299;-64
2022/01/02 11:22:24;;;;;;;;;;;23.40;48.30;;;;;;5089450;28;21203;-58
2022/01/02 11:24:56;;;;;;;;;;;23.60;47.50;;;;;;5102278;27;19951;-66
2022/01/02 11:27:24;;;;;;;;;;;23.60;47.10;;;;;;5086654;28;19950;-63
2022/01/02 11:29:51;;;;;;;;;;;23.60;47.20;;;;;;5085811;28;19935;-60
2022/01/02 11:32:22;;;;;;;;;;;23.70;47.40;;;;;;5085923;28;19928;-59
2022/01/02 11:34:50;;;;;;;;;;;24.50;46.80;;;;;;5098945;28;19924;-62
2022/01/02 11:37:21;;;;;;;;;;;25.30;45.30;;;;;;5087268;28;19959;-62
2022/01/02 11:39:52;;;;;;;;;;;26.00;43.90;;;;;;5089219;28;19967;-59
2022/01/02 11:42:33;;;;;;;;;;;26.80;42.40;;;;;;5106313;28;19939;-64
2022/01/02 11:45:02;;;;;;;;;;;27.70;40.90;;;;;;5087077;28;19932;-63
2022/01/02 11:47:38;;;;;;;;;;;28.80;39.30;;;;;;5089762;28;19923;-58
2022/01/02 11:50:05;;;;;;;;;;;29.60;37.80;;;;;;5084757;28;20394;-60
2022/01/02 11:52:34;;;;;;;;;;;30.40;36.70;;;;;;5077921;28;19938;-68
2022/01/02 11:55:00;;;;;;;;;;;31.10;35.70;;;;;;5100643;28;19928;-61
2022/01/02 11:57:52;;;;;;;;;;;31.70;34.80;;;;;;5084338;28;19932;-63
2022/01/02 12:00:39;;;;;;;;;;;32.10;33.90;;;;;;5084126;28;19927;-60
2022/01/02 12:03:06;;;;;;;;;;;32.50;33.20;;;;;;5083836;28;20163;-66
2022/01/02 12:05:33;;;;;;;;;;;32.70;32.70;;;;;;5102375;28;20030;-74
2022/01/02 12:08:00;;;;;;;;;;;32.90;32.30;;;;;;5105200;28;19967;-56
2022/01/02 12:10:30;;;;;;;;;;;33.10;31.90;;;;;;5083584;28;19923;-66
2022/01/02 12:13:13;;;;;;;;;;;33.30;31.60;;;;;;5087438;28;19923;-53
2022/01/02 12:16:01;;;;;;;;;;;33.60;31.30;;;;;;5087122;28;19928;-67
2022/01/02 12:18:31;;;;;;;;;;;33.70;30.70;;;;;;5097751;28;19935;-64
2022/01/02 12:21:11;;;;;;;;;;;33.90;30.50;;;;;;5082521;28;20290;-60
2022/01/02 12:23:53;;;;;;;;;;;34.00;30.20;;;;;;5101834;28;19924;-59
2022/01/02 12:26:21;;;;;;;;;;;34.10;30.40;;;;;;5078812;28;20391;-65
2022/01/02 12:28:51;;;;;;;;;;;34.20;30.00;;;;;;5085235;28;19954;-59
2022/01/02 12:31:18;;;;;;;;;;;34.30;29.80;;;;;;5082281;28;19930;-59
2022/01/02 12:33:46;;;;;;;;;;;34.50;29.60;;;;;;5086667;28;20446;-61
2022/01/02 12:36:15;;;;;;;;;;;34.50;29.30;;;;;;5098507;28;19923;-61
2022/01/02 12:38:46;;;;;;;;;;;34.70;29.00;;;;;;5101546;28;20018;-58
2022/01/02 12:41:13;;;;;;;;;;;34.80;29.00;;;;;;5086026;28;19928;-59
2022/01/02 12:43:40;;;;;;;;;;;34.90;28.80;;;;;;5080916;28;19931;-54
2022/01/02 12:46:06;;;;;;;;;;;35.00;29.20;;;;;;5083270;28;19924;-60
2022/01/02 12:48:33;;;;;;;;;;;35.10;28.50;;;;;;5085907;28;19926;-66
2022/01/02 12:51:14;;;;;;;;;;;34.60;29.10;;;;;;5086545;28;19977;-62
2022/01/02 12:53:41;;;;;;;;;;;34.00;29.50;;;;;;5104027;28;19924;-64
2022/01/02 12:56:07;;;;;;;;;;;33.20;29.80;;;;;;5086609;28;19932;-68
2022/01/02 12:58:36;;;;;;;;;;;32.60;30.30;;;;;;5088365;28;19932;-64
2022/01/02 13:01:03;;;;;;;;;;;31.90;30.80;;;;;;5087427;28;19981;-53
2022/01/02 13:03:30;;;;;;;;;;;31.40;31.20;;;;;;5087227;28;19996;-68
2022/01/02 13:05:58;;;;;;;;;;;30.90;31.90;;;;;;5083280;28;19938;-57
2022/01/02 13:08:29;;;;;;;;;;;30.40;32.40;;;;;;5084900;28;19930;-63
2022/01/02 13:10:56;;;;;;;;;;;29.90;33.10;;;;;;5084700;28;20074;-57
2022/01/02 13:13:29;;;;;;;;;;;29.50;33.80;;;;;;5085268;28;19945;-59
2022/01/02 13:15:56;;;;;;;;;;;29.10;34.40;;;;;;5086307;28;19951;-65
2022/01/02 13:18:22;;;;;;;;;;;28.60;34.90;;;;;;5085410;28;20485;-61
2022/01/02 13:20:49;;;;;;;;;;;28.30;35.50;;;;;;5101681;28;20439;-59
2022/01/02 13:23:16;;;;;;;;;;;28.00;36.00;;;;;;5097309;28;20018;-61
2022/01/02 13:25:45;;;;;;;;;;;27.60;36.40;;;;;;5085116;28;19928;-57
2022/01/02 13:28:12;;;;;;;;;;;27.40;37.00;;;;;;5070679;28;19924;-67
2022/01/02 13:30:41;;;;;;;;;;;27.10;37.40;;;;;;5083190;28;20014;-65
2022/01/02 13:33:17;;;;;;;;;;;26.80;37.70;;;;;;5085190;28;19932;-62
2022/01/02 13:35:44;;;;;;;;;;;26.60;38.10;;;;;;5087743;28;19932;-69
2022/01/02 13:38:11;;;;;;;;;;;26.40;38.40;;;;;;5079779;28;19928;-61
2022/01/02 13:40:38;;;;;;;;;;;26.20;38.70;;;;;;5091814;28;19967;-59
2022/01/02 13:43:10;;;;;;;;;;;26.00;39.00;;;;;;5085311;28;19966;-59
2022/01/02 13:45:39;;;;;;;;;;;25.90;39.20;;;;;;5090884;28;19924;-65
2022/01/02 13:48:10;;;;;;;;;;;25.70;39.50;;;;;;5108045;28;19927;-56
2022/01/02 13:50:38;;;;;;;;;;;25.60;39.70;;;;;;5089174;28;19931;-56
2022/01/02 13:53:05;;;;;;;;;;;25.40;39.80;;;;;;5088527;28;20026;-63
2022/01/02 13:55:33;;;;;;;;;;;25.70;40.40;;;;;;5083132;28;19939;-73
2022/01/02 13:58:00;;;;;;;;;;;26.50;39.50;;;;;;5082274;28;20024;-60
2022/01/02 14:00:29;;;;;;;;;;;27.10;38.50;;;;;;5086717;28;20018;-64
2022/01/02 14:02:56;;;;;;;;;;;27.80;37.50;;;;;;5105189;28;19931;-61
2022/01/02 14:05:23;;;;;;;;;;;28.40;36.30;;;;;;5103456;28;19955;-60
2022/01/02 14:07:50;;;;;;;;;;;29.20;35.40;;;;;;5090089;28;20036;-63
2022/01/02 14:10:16;;;;;;;;;;;30.00;34.30;;;;;;5107209;28;19980;-61
2022/01/02 14:12:43;;;;;;;;;;;30.60;33.20;;;;;;5109833;28;19927;-60
2022/01/02 14:15:14;;;;;;;;;;;31.30;32.40;;;;;;5108657;28;19927;-57
2022/01/02 14:17:45;;;;;;;;;;;31.80;31.40;;;;;;5091859;28;19927;-62
2022/01/02 14:20:13;;;;;;;;;;;32.40;30.60;;;;;;5108150;28;19928;-62
2022/01/02 14:22:40;;;;;;;;;;;33.00;29.80;;;;;;5089440;28;20493;-61
2022/01/02 14:25:07;;;;;;;;;;;33.40;29.20;;;;;;5102202;28;19928;-59